Time;durP1;ratioP1;P1;durP2;ratioP2;P2;SDS_P1;SDS_P2;PMS_P1;PMS_P2;Temp;Humidity;BMP_temperature;BMP_pressure;BME280_temperature;BME280_humidity;BME280_pressure;Samples;Min_cycle;Max_cycle;Signal;HPM_P1;HPM_P2
2022/10/18 00:01:35;;;;;;;8.90;7.10;;;15.20;99.90;;;;;;2610783;39;20563;-78
2022/10/18 00:04:01;;;;;;;10.43;8.60;;;15.10;99.90;;;;;;2613510;54;20181;-78
2022/10/18 00:06:27;;;;;;;8.73;7.07;;;15.10;99.90;;;;;;2614200;47;20174;-78
2022/10/18 00:08:52;;;;;;;9.33;8.07;;;15.10;99.90;;;;;;2614081;39;20598;-77
2022/10/18 00:11:18;;;;;;;6.97;6.30;;;15.10;99.90;;;;;;2612867;54;20258;-77
2022/10/18 00:13:44;;;;;;;9.30;7.87;;;15.10;99.90;;;;;;2613930;54;20178;-79
2022/10/18 00:16:13;;;;;;;9.93;7.23;;;15.10;99.90;;;;;;2614442;54;20165;-79
2022/10/18 00:18:38;;;;;;;10.67;6.57;;;15.10;99.90;;;;;;2612893;39;20579;-76
2022/10/18 00:21:08;;;;;;;8.67;6.77;;;15.10;99.90;;;;;;2613347;54;20478;-74
2022/10/18 00:23:34;;;;;;;9.30;6.53;;;15.00;99.90;;;;;;2615775;54;20663;-84
2022/10/18 00:26:07;;;;;;;8.30;7.50;;;15.00;99.90;;;;;;2617890;39;20792;-84
2022/10/18 00:28:33;;;;;;;10.33;6.70;;;15.00;99.90;;;;;;2614072;54;20434;-80
2022/10/18 00:31:22;;;;;;;8.60;6.90;;;15.00;99.90;;;;;;2613106;54;20432;-79
2022/10/18 00:33:57;;;;;;;8.90;6.30;;;15.00;99.90;;;;;;2613929;39;20907;-76
2022/10/18 00:36:23;;;;;;;10.10;7.40;;;15.00;99.90;;;;;;2613007;39;20920;-75
2022/10/18 00:38:50;;;;;;;11.83;7.80;;;15.10;99.90;;;;;;2613530;54;21000;-75
2022/10/18 00:41:22;;;;;;;8.70;7.00;;;15.10;99.90;;;;;;2613489;54;20475;-76
2022/10/18 00:43:50;;;;;;;11.17;7.30;;;15.10;99.90;;;;;;2612276;54;20427;-79
2022/10/18 00:46:17;;;;;;;8.97;7.30;;;15.10;99.90;;;;;;2614217;54;20427;-78
2022/10/18 00:48:43;;;;;;;7.90;7.10;;;15.00;99.90;;;;;;2616440;54;20462;-85
2022/10/18 00:51:09;;;;;;;9.17;7.40;;;15.10;99.90;;;;;;2616102;48;20414;-83
2022/10/18 00:53:35;;;;;;;8.13;6.60;;;15.10;99.90;;;;;;2614139;54;20174;-78
2022/10/18 00:56:01;;;;;;;8.83;7.00;;;15.10;99.90;;;;;;2614573;54;20155;-79
2022/10/18 00:58:27;;;;;;;11.43;7.50;;;15.10;99.90;;;;;;2611693;54;20442;-75
2022/10/18 01:00:53;;;;;;;7.57;6.87;;;15.10;99.90;;;;;;2612286;46;20189;-76
2022/10/18 01:03:18;;;;;;;10.80;7.40;;;15.10;99.90;;;;;;2611099;54;20435;-76
2022/10/18 01:05:46;;;;;;;8.90;7.70;;;15.10;99.90;;;;;;2613485;54;20189;-79
2022/10/18 01:08:27;;;;;;;10.27;8.47;;;15.10;99.90;;;;;;2612037;54;20161;-78
2022/10/18 01:11:24;;;;;;;10.93;7.43;;;15.00;99.90;;;;;;2614779;54;20428;-80
2022/10/18 01:13:58;;;;;;;9.27;8.37;;;15.00;99.90;;;;;;2613788;47;20423;-80
2022/10/18 01:16:40;;;;;;;9.30;8.03;;;15.10;99.90;;;;;;2613920;54;20428;-78
2022/10/18 01:19:31;;;;;;;10.27;7.93;;;15.00;99.90;;;;;;2613375;54;20419;-78
2022/10/18 01:22:04;;;;;;;10.57;6.90;;;15.00;99.90;;;;;;2614819;54;20411;-85
2022/10/18 01:24:39;;;;;;;7.37;6.67;;;15.00;99.90;;;;;;2616899;54;20430;-85
2022/10/18 01:27:20;;;;;;;11.77;7.73;;;15.00;99.90;;;;;;2613070;54;20419;-78
2022/10/18 01:30:04;;;;;;;11.33;7.30;;;15.10;99.90;;;;;;2613701;54;20395;-78
2022/10/18 01:32:36;;;;;;;7.80;6.70;;;15.00;99.90;;;;;;2613732;54;20994;-77
2022/10/18 01:35:07;;;;;;;8.63;6.67;;;15.00;99.90;;;;;;2615105;54;21077;-78
2022/10/18 01:37:35;;;;;;;9.57;7.27;;;14.90;99.90;;;;;;2616561;54;20392;-84
2022/10/18 01:40:05;;;;;;;18.67;8.97;;;15.00;99.90;;;;;;2615745;54;20441;-83
2022/10/18 01:42:31;;;;;;;11.77;7.43;;;15.00;99.90;;;;;;2613924;54;20450;-76
2022/10/18 01:44:58;;;;;;;12.10;8.50;;;15.00;99.90;;;;;;2610952;54;20423;-76
2022/10/18 01:47:24;;;;;;;8.57;6.67;;;15.00;99.90;;;;;;2613337;54;20430;-78
2022/10/18 01:49:59;;;;;;;9.60;7.50;;;14.90;99.90;;;;;;2612228;54;20951;-78
2022/10/18 01:52:25;;;;;;;8.97;7.23;;;14.90;99.90;;;;;;2614971;54;20411;-84
2022/10/18 01:54:52;;;;;;;15.13;8.10;;;14.90;99.90;;;;;;2616000;54;20427;-85
2022/10/18 01:57:40;;;;;;;11.97;7.70;;;15.00;99.90;;;;;;2612998;47;20170;-77
2022/10/18 02:00:24;;;;;;;12.10;6.47;;;14.90;99.90;;;;;;2614274;39;20922;-78
2022/10/18 02:02:54;;;;;;;7.70;6.60;;;15.00;99.90;;;;;;2613977;39;21114;-78
2022/10/18 02:05:35;;;;;;;9.90;6.83;;;15.00;99.90;;;;;;2614059;47;20416;-79
2022/10/18 02:08:23;;;;;;;8.30;6.33;;;15.00;99.90;;;;;;2612077;54;20972;-77
2022/10/18 02:11:11;;;;;;;10.70;8.27;;;15.00;99.90;;;;;;2614780;54;20439;-76
2022/10/18 02:14:02;;;;;;;12.97;7.80;;;15.10;99.90;;;;;;2612146;39;21002;-75
2022/10/18 02:16:40;;;;;;;9.93;7.33;;;15.00;99.90;;;;;;2614240;39;20792;-76
2022/10/18 02:19:31;;;;;;;7.03;6.33;;;15.00;99.90;;;;;;2613774;54;20495;-76
2022/10/18 02:21:57;;;;;;;7.23;6.53;;;15.00;99.90;;;;;;2615716;47;20431;-84
2022/10/18 02:24:28;;;;;;;11.00;8.10;;;15.00;99.90;;;;;;2617618;54;20419;-75
2022/10/18 02:26:54;;;;;;;9.73;7.57;;;15.10;99.90;;;;;;2613521;54;20524;-76
2022/10/18 02:29:19;;;;;;;16.63;10.17;;;15.20;99.90;;;;;;2613193;54;20990;-79
2022/10/18 02:31:54;;;;;;;11.83;9.47;;;15.10;99.90;;;;;;2614963;47;21150;-78
2022/10/18 02:34:28;;;;;;;15.50;9.40;;;15.10;99.90;;;;;;2613843;54;20167;-81
2022/10/18 02:36:58;;;;;;;11.67;9.13;;;15.00;99.90;;;;;;2613765;39;20789;-80
2022/10/18 02:39:35;;;;;;;11.50;8.10;;;15.00;99.90;;;;;;2615197;39;20836;-79
2022/10/18 02:42:06;;;;;;;11.30;8.00;;;15.00;99.90;;;;;;2614115;39;20867;-78
2022/10/18 02:44:33;;;;;;;10.93;9.07;;;15.00;99.90;;;;;;2614348;47;20466;-77
2022/10/18 02:46:59;;;;;;;9.50;7.37;;;15.00;99.90;;;;;;2613490;47;20502;-76
2022/10/18 02:49:25;;;;;;;9.73;8.50;;;14.90;99.90;;;;;;2614380;47;20431;-80
2022/10/18 02:51:50;;;;;;;8.67;7.77;;;14.90;99.90;;;;;;2616531;47;20423;-80
2022/10/18 02:54:16;;;;;;;13.30;8.47;;;14.90;99.90;;;;;;2614543;54;20663;-75
2022/10/18 02:56:41;;;;;;;10.20;8.30;;;14.90;99.90;;;;;;2613104;54;20163;-76
2022/10/18 02:59:07;;;;;;;8.87;7.90;;;14.80;99.90;;;;;;2612812;54;20170;-78
2022/10/18 03:01:36;;;;;;;8.47;7.20;;;14.80;99.90;;;;;;2612848;47;20189;-78
2022/10/18 03:04:02;;;;;;;9.47;8.50;;;14.80;99.90;;;;;;2613692;54;20154;-77
2022/10/18 03:06:28;;;;;;;9.57;8.10;;;14.90;99.90;;;;;;2613950;54;20431;-76
2022/10/18 03:08:54;;;;;;;8.90;8.00;;;14.90;99.90;;;;;;2612490;39;20727;-81
2022/10/18 03:11:19;;;;;;;9.33;8.30;;;14.80;99.90;;;;;;2614253;54;20174;-80
2022/10/18 03:13:45;;;;;;;14.63;7.70;;;14.80;99.90;;;;;;2614118;54;20176;-80
2022/10/18 03:16:11;;;;;;;10.20;8.30;;;14.80;99.90;;;;;;2613885;54;20161;-79
2022/10/18 03:18:37;;;;;;;9.70;7.90;;;14.80;99.90;;;;;;2612740;54;20270;-80
2022/10/18 03:21:04;;;;;;;11.53;9.20;;;14.90;99.90;;;;;;2616461;54;20423;-83
2022/10/18 03:23:30;;;;;;;11.43;8.57;;;15.00;99.90;;;;;;2615892;54;20176;-84
2022/10/18 03:25:56;;;;;;;10.80;8.67;;;14.90;99.90;;;;;;2614418;47;20473;-77
2022/10/18 03:28:21;;;;;;;14.50;10.13;;;14.90;99.90;;;;;;2612064;39;20599;-77
2022/10/18 03:30:47;;;;;;;11.93;8.63;;;14.90;99.90;;;;;;2613968;54;20175;-77
2022/10/18 03:33:12;;;;;;;10.93;8.77;;;14.90;99.90;;;;;;2612603;39;20584;-77
2022/10/18 03:35:38;;;;;;;14.03;9.27;;;14.80;99.90;;;;;;2613463;54;20182;-75
2022/10/18 03:38:04;;;;;;;12.20;8.80;;;14.80;99.90;;;;;;2612774;54;20155;-75
2022/10/18 03:40:30;;;;;;;10.40;9.33;;;14.90;99.90;;;;;;2614439;54;20198;-80
2022/10/18 03:42:55;;;;;;;17.60;8.53;;;14.90;99.90;;;;;;2614577;54;20182;-81
2022/10/18 03:45:21;;;;;;;11.03;9.50;;;14.90;99.90;;;;;;2613872;54;20404;-77
2022/10/18 03:47:46;;;;;;;10.17;7.83;;;14.90;99.90;;;;;;2614338;46;20192;-77
2022/10/18 03:50:12;;;;;;;13.70;8.83;;;14.90;99.90;;;;;;2613354;54;20167;-75
2022/10/18 03:52:38;;;;;;;9.83;8.63;;;14.90;99.90;;;;;;2613626;47;20173;-75
2022/10/18 03:55:04;;;;;;;10.47;8.97;;;14.90;99.90;;;;;;2612958;54;20171;-77
2022/10/18 03:57:29;;;;;;;12.13;8.43;;;14.90;99.90;;;;;;2613871;39;20556;-76
2022/10/18 03:59:55;;;;;;;9.97;7.70;;;14.90;99.90;;;;;;2614029;54;20424;-77
2022/10/18 04:02:21;;;;;;;12.33;8.87;;;14.90;99.90;;;;;;2612465;54;20163;-77
2022/10/18 04:04:46;;;;;;;10.60;8.13;;;14.90;99.90;;;;;;2613762;54;20277;-80
2022/10/18 04:07:12;;;;;;;9.70;8.70;;;14.90;99.90;;;;;;2614631;54;20159;-80
2022/10/18 04:09:37;;;;;;;11.50;8.63;;;14.80;99.90;;;;;;2614720;54;20258;-83
2022/10/18 04:12:03;;;;;;;12.40;8.80;;;14.80;99.90;;;;;;2617152;54;20162;-84
2022/10/18 04:14:29;;;;;;;11.73;9.23;;;14.90;99.90;;;;;;2616697;54;20238;-84
2022/10/18 04:16:55;;;;;;;14.93;10.10;;;15.00;99.90;;;;;;2616698;54;20419;-85
2022/10/18 04:19:20;;;;;;;11.40;9.50;;;15.00;99.90;;;;;;2614321;54;20179;-77
2022/10/18 04:21:46;;;;;;;11.77;8.83;;;14.90;99.90;;;;;;2613276;54;20181;-76
2022/10/18 04:24:11;;;;;;;11.03;9.10;;;14.90;99.90;;;;;;2612667;54;20170;-77
2022/10/18 04:26:37;;;;;;;12.00;8.67;;;14.90;99.90;;;;;;2614083;54;20264;-77
2022/10/18 04:29:03;;;;;;;10.53;9.50;;;14.90;99.90;;;;;;2612947;54;20696;-75
2022/10/18 04:31:28;;;;;;;12.10;8.57;;;14.90;99.90;;;;;;2611649;54;20701;-75
2022/10/18 04:33:54;;;;;;;10.20;8.07;;;14.90;99.90;;;;;;2612079;47;20189;-75
2022/10/18 04:36:19;;;;;;;13.20;8.90;;;14.90;99.90;;;;;;2613452;47;20166;-75
2022/10/18 04:38:45;;;;;;;10.10;8.57;;;14.90;99.90;;;;;;2613072;54;20162;-74
2022/10/18 04:41:11;;;;;;;11.27;9.20;;;14.90;99.90;;;;;;2614009;46;20192;-75
2022/10/18 04:43:36;;;;;;;8.93;8.00;;;14.90;99.90;;;;;;2613041;54;20163;-74
2022/10/18 04:46:02;;;;;;;10.47;8.90;;;14.90;99.90;;;;;;2614352;54;20181;-78
2022/10/18 04:48:28;;;;;;;9.70;8.70;;;14.80;99.90;;;;;;2615889;39;20545;-78
2022/10/18 04:50:53;;;;;;;10.57;8.47;;;14.80;99.90;;;;;;2614514;47;20167;-77
2022/10/18 04:53:19;;;;;;;11.70;8.07;;;14.80;99.90;;;;;;2614345;54;20278;-78
2022/10/18 04:55:49;;;;;;;9.73;8.63;;;14.70;99.90;;;;;;2614769;54;20174;-78
2022/10/18 04:58:16;;;;;;;15.43;9.57;;;14.80;99.90;;;;;;2614460;54;20687;-78
2022/10/18 05:00:42;;;;;;;12.10;8.93;;;14.70;99.90;;;;;;2612866;54;20434;-76
2022/10/18 05:03:09;;;;;;;14.93;9.97;;;14.70;99.90;;;;;;2614077;39;20821;-75
2022/10/18 05:05:35;;;;;;;13.70;9.00;;;14.70;99.90;;;;;;2615474;54;20432;-83
2022/10/18 05:08:00;;;;;;;14.20;9.67;;;14.70;99.90;;;;;;2617159;54;20427;-85
2022/10/18 05:10:26;;;;;;;16.47;9.87;;;14.80;99.90;;;;;;2615368;54;20175;-74
2022/10/18 05:12:51;;;;;;;15.17;10.30;;;14.80;99.90;;;;;;2611015;54;20150;-75
2022/10/18 05:15:17;;;;;;;20.27;11.03;;;14.90;99.90;;;;;;2613896;54;20158;-84
2022/10/18 05:17:43;;;;;;;13.67;10.10;;;14.90;99.90;;;;;;2617096;54;20173;-85
2022/10/18 05:20:09;;;;;;;12.80;8.80;;;14.80;99.90;;;;;;2616396;39;20568;-77
2022/10/18 05:22:34;;;;;;;14.73;9.83;;;14.80;99.90;;;;;;2612813;54;20171;-77
2022/10/18 05:25:00;;;;;;;11.07;9.07;;;14.80;99.90;;;;;;2612967;54;20499;-77
2022/10/18 05:27:27;;;;;;;14.63;9.57;;;14.80;99.90;;;;;;2611069;54;20177;-75
2022/10/18 05:29:53;;;;;;;15.60;11.67;;;14.90;99.90;;;;;;2613336;47;20281;-76
2022/10/18 05:32:18;;;;;;;14.20;10.10;;;14.80;99.90;;;;;;2613128;54;20455;-75
2022/10/18 05:34:44;;;;;;;10.00;8.30;;;14.80;99.90;;;;;;2614770;31;20582;-75
2022/10/18 05:37:10;;;;;;;12.70;10.67;;;14.80;99.90;;;;;;2612423;54;20175;-74
2022/10/18 05:39:36;;;;;;;16.33;10.17;;;14.90;99.90;;;;;;2613909;47;20190;-83
2022/10/18 05:42:02;;;;;;;14.83;9.53;;;14.90;99.90;;;;;;2615648;47;20178;-84
2022/10/18 05:44:27;;;;;;;13.17;8.90;;;14.90;99.90;;;;;;2614545;54;20988;-75
2022/10/18 05:46:53;;;;;;;12.43;10.17;;;14.90;99.90;;;;;;2611032;47;20277;-75
2022/10/18 05:49:19;;;;;;;14.27;9.50;;;14.90;99.90;;;;;;2612120;54;20663;-75
2022/10/18 05:51:44;;;;;;;25.37;11.70;;;14.90;99.90;;;;;;2613039;47;20197;-74
2022/10/18 05:54:11;;;;;;;21.70;12.40;;;15.00;99.90;;;;;;2612441;39;20702;-74
2022/10/18 05:56:37;;;;;;;14.93;11.77;;;15.00;99.90;;;;;;2609289;54;20630;-74
2022/10/18 05:59:10;;;;;;;16.40;11.60;;;15.10;99.90;;;;;;2610900;31;20901;-74
2022/10/18 06:01:40;;;;;;;16.23;13.23;;;15.00;99.90;;;;;;2611147;47;20433;-74
2022/10/18 06:04:06;;;;;;;16.50;11.90;;;14.90;99.90;;;;;;2609059;54;20955;-76
2022/10/18 06:06:33;;;;;;;18.47;11.30;;;14.90;99.90;;;;;;2609668;54;20462;-77
2022/10/18 06:08:59;;;;;;;12.93;10.27;;;14.80;99.90;;;;;;2613850;47;20423;-80
2022/10/18 06:11:25;;;;;;;16.30;11.67;;;14.80;99.90;;;;;;2612333;54;20433;-80
2022/10/18 06:13:51;;;;;;;18.33;12.20;;;14.90;99.90;;;;;;2613176;54;20237;-78
2022/10/18 06:16:20;;;;;;;19.97;11.93;;;14.90;99.90;;;;;;2614753;39;20811;-78
2022/10/18 06:18:54;;;;;;;14.80;10.43;;;14.80;99.90;;;;;;2613587;54;20415;-78
2022/10/18 06:21:21;;;;;;;16.07;11.20;;;14.80;99.90;;;;;;2611798;39;20948;-78
2022/10/18 06:23:51;;;;;;;20.67;13.90;;;14.90;99.90;;;;;;2611052;39;20774;-76
2022/10/18 06:26:16;;;;;;;18.10;11.17;;;14.90;99.90;;;;;;2612023;54;20432;-76
2022/10/18 06:28:42;;;;;;;21.40;13.80;;;14.90;99.90;;;;;;2612364;39;20778;-77
2022/10/18 06:31:10;;;;;;;17.77;11.87;;;14.90;99.90;;;;;;2613058;54;20189;-79
2022/10/18 06:33:36;;;;;;;19.70;11.90;;;14.80;99.90;;;;;;2614250;47;20159;-78
2022/10/18 06:36:04;;;;;;;17.43;11.83;;;14.80;99.90;;;;;;2611591;47;20423;-78
2022/10/18 06:38:31;;;;;;;19.40;12.00;;;14.80;99.90;;;;;;2610891;54;20444;-78
2022/10/18 06:40:58;;;;;;;30.43;14.70;;;14.80;99.90;;;;;;2611442;47;20458;-77
2022/10/18 06:43:25;;;;;;;24.10;14.20;;;14.90;99.90;;;;;;2610681;54;20411;-78
2022/10/18 06:45:51;;;;;;;21.10;14.83;;;14.90;99.90;;;;;;2611508;39;20807;-75
2022/10/18 06:48:18;;;;;;;24.07;13.90;;;14.90;99.90;;;;;;2612062;31;20851;-75
2022/10/18 06:50:57;;;;;;;17.83;12.10;;;14.90;99.90;;;;;;2611562;39;20730;-75
2022/10/18 06:53:24;;;;;;;19.47;13.77;;;14.90;99.90;;;;;;2611680;54;20415;-75
2022/10/18 06:55:50;;;;;;;19.00;14.07;;;14.90;99.90;;;;;;2610013;54;20534;-75
2022/10/18 06:58:16;;;;;;;29.00;14.60;;;14.90;99.90;;;;;;2610910;54;20404;-75
2022/10/18 07:00:41;;;;;;;26.53;14.87;;;14.90;99.90;;;;;;2610092;54;20174;-75
2022/10/18 07:03:07;;;;;;;18.33;13.23;;;14.90;99.90;;;;;;2611947;47;20205;-76
2022/10/18 07:05:33;;;;;;;27.33;15.43;;;15.00;99.90;;;;;;2612235;39;20568;-78
2022/10/18 07:07:58;;;;;;;22.07;14.57;;;15.00;99.90;;;;;;2611595;54;20306;-78
2022/10/18 07:10:24;;;;;;;22.30;14.43;;;15.00;99.90;;;;;;2616730;54;20178;-86
2022/10/18 07:12:50;;;;;;;18.77;13.17;;;15.00;99.90;;;;;;2617496;47;20166;-87
2022/10/18 07:15:16;;;;;;;18.53;14.30;;;15.00;99.90;;;;;;2618774;54;20159;-87
2022/10/18 07:17:44;;;;;;;23.43;14.47;;;15.00;99.90;;;;;;2618627;54;20201;-86
2022/10/18 07:20:11;;;;;;;24.00;16.30;;;15.10;99.90;;;;;;2615937;47;20435;-77
2022/10/18 07:22:39;;;;;;;21.50;15.93;;;15.20;99.90;;;;;;2612830;54;20435;-76
2022/10/18 07:25:07;;;;;;;23.10;14.70;;;15.20;99.90;;;;;;2620827;54;20467;-85
2022/10/18 07:27:42;;;;;;;22.00;14.47;;;15.20;99.90;;;;;;2622918;54;20546;-85
2022/10/18 07:30:09;;;;;;;29.57;16.20;;;15.20;99.90;;;;;;2615702;54;21210;-78
2022/10/18 07:32:35;;;;;;;32.67;15.23;;;15.30;99.90;;;;;;2611032;54;20427;-78
2022/10/18 07:35:01;;;;;;;28.73;16.87;;;15.40;99.90;;;;;;2610465;54;20427;-77
2022/10/18 07:37:28;;;;;;;27.63;16.30;;;15.40;99.90;;;;;;2611301;54;21030;-78
2022/10/18 07:39:54;;;;;;;25.10;16.63;;;15.40;99.90;;;;;;2614355;39;20706;-77
2022/10/18 07:42:19;;;;;;;29.20;15.80;;;15.50;99.90;;;;;;2614402;54;20450;-77
2022/10/18 07:44:45;;;;;;;29.20;18.57;;;15.60;99.90;;;;;;2613208;54;20217;-75
2022/10/18 07:47:10;;;;;;;31.77;17.90;;;15.70;99.90;;;;;;2606986;46;20188;-75
2022/10/18 07:49:36;;;;;;;20.50;16.83;;;15.80;99.90;;;;;;2610012;54;20155;-74
2022/10/18 07:52:02;;;;;;;25.30;17.70;;;15.90;99.90;;;;;;2612680;54;20266;-75
2022/10/18 07:54:27;;;;;;;31.73;18.37;;;15.80;99.90;;;;;;2613006;54;20159;-75
2022/10/18 07:56:53;;;;;;;24.93;17.60;;;15.80;99.90;;;;;;2611532;49;21559;-76
2022/10/18 07:59:18;;;;;;;30.70;20.37;;;15.90;99.90;;;;;;2611632;39;20646;-77
2022/10/18 08:01:44;;;;;;;41.27;22.97;;;15.90;99.90;;;;;;2611906;47;20167;-78
2022/10/18 08:04:10;;;;;;;43.37;24.67;;;15.90;99.90;;;;;;2614277;54;20162;-86
2022/10/18 08:06:35;;;;;;;46.20;24.63;;;15.80;99.90;;;;;;2616483;54;20666;-86
2022/10/18 08:09:01;;;;;;;54.27;30.00;;;15.80;99.90;;;;;;2616987;39;20610;-85
2022/10/18 08:11:27;;;;;;;54.37;32.13;;;15.80;99.90;;;;;;2616705;39;20206;-86
2022/10/18 08:13:53;;;;;;;69.00;31.30;;;15.80;99.90;;;;;;2615846;47;20254;-80
2022/10/18 08:16:22;;;;;;;53.80;31.13;;;15.90;99.90;;;;;;2611189;47;20185;-78
2022/10/18 08:18:48;;;;;;;50.17;30.17;;;15.80;99.90;;;;;;2612108;54;20427;-78
2022/10/18 08:21:15;;;;;;;59.57;31.53;;;15.90;99.90;;;;;;2613012;31;20913;-79
2022/10/18 08:23:42;;;;;;;54.83;30.47;;;15.80;99.90;;;;;;2612840;54;20754;-78
2022/10/18 08:26:10;;;;;;;53.33;32.20;;;15.80;99.90;;;;;;2612009;54;20563;-76
2022/10/18 08:28:36;;;;;;;65.30;33.53;;;15.80;99.90;;;;;;2612261;54;20426;-76
2022/10/18 08:31:13;;;;;;;65.33;33.97;;;15.80;99.90;;;;;;2612642;47;20463;-78
2022/10/18 08:33:39;;;;;;;66.17;36.50;;;15.70;99.90;;;;;;2613689;54;20415;-78
2022/10/18 08:36:07;;;;;;;74.40;37.63;;;15.80;99.90;;;;;;2611862;47;20435;-77
2022/10/18 08:38:34;;;;;;;72.80;37.57;;;15.70;99.90;;;;;;2613141;54;20519;-76
2022/10/18 08:41:28;;;;;;;60.20;35.90;;;15.70;99.90;;;;;;2612275;54;20489;-76
2022/10/18 08:44:11;;;;;;;75.03;37.67;;;15.80;99.90;;;;;;2611249;54;20427;-78
2022/10/18 08:46:41;;;;;;;68.90;37.97;;;15.80;99.90;;;;;;2613189;47;20429;-79
2022/10/18 08:49:17;;;;;;;65.27;37.23;;;15.80;99.90;;;;;;2613055;54;20436;-78
2022/10/18 08:51:46;;;;;;;67.13;39.70;;;15.80;99.90;;;;;;2613657;54;20427;-80
2022/10/18 08:54:13;;;;;;;74.97;38.23;;;15.80;99.90;;;;;;2612402;54;20432;-87
2022/10/18 08:56:44;;;;;;;70.23;39.53;;;15.80;99.90;;;;;;2617145;54;21023;-87
2022/10/18 08:59:12;;;;;;;85.53;43.00;;;15.80;99.90;;;;;;2616329;54;20414;-76
2022/10/18 09:01:56;;;;;;;68.70;39.47;;;15.70;99.90;;;;;;2612243;39;20813;-75
2022/10/18 09:04:35;;;;;;;84.53;41.07;;;15.80;99.90;;;;;;2615020;39;20517;-87
2022/10/18 09:07:38;;;;;;;72.93;39.00;;;15.80;99.90;;;;;;2617829;54;20439;-86
2022/10/18 09:10:13;;;;;;;72.23;39.17;;;15.90;99.90;;;;;;2614585;47;20427;-78
2022/10/18 09:12:47;;;;;;;66.77;38.80;;;15.80;99.90;;;;;;2611804;54;20423;-77
2022/10/18 09:15:39;;;;;;;65.77;37.60;;;15.80;99.90;;;;;;2612478;54;20442;-75
2022/10/18 09:18:10;;;;;;;69.63;40.10;;;15.90;99.90;;;;;;2611758;54;20451;-75
2022/10/18 09:20:38;;;;;;;66.67;37.70;;;16.00;99.90;;;;;;2611412;54;20518;-78
2022/10/18 09:23:27;;;;;;;61.60;37.03;;;15.90;99.90;;;;;;2612712;47;20426;-77
2022/10/18 09:26:05;;;;;;;61.90;37.60;;;16.00;99.90;;;;;;2613205;54;20419;-78
2022/10/18 09:28:43;;;;;;;61.23;36.67;;;16.00;99.90;;;;;;2612943;54;20415;-78
2022/10/18 09:31:31;;;;;;;59.63;35.67;;;16.00;99.90;;;;;;2612873;54;20458;-80
2022/10/18 09:34:04;;;;;;;62.43;36.87;;;16.00;99.90;;;;;;2613697;54;21277;-80
2022/10/18 09:36:37;;;;;;;56.77;34.37;;;15.90;99.90;;;;;;2613336;54;20570;-79
2022/10/18 09:39:34;;;;;;;56.47;34.90;;;15.90;99.90;;;;;;2611749;54;20426;-78
2022/10/18 09:42:30;;;;;;;75.00;36.70;;;15.90;99.90;;;;;;2613014;39;20797;-78
2022/10/18 09:45:17;;;;;;;55.83;34.53;;;16.00;99.90;;;;;;2613810;47;20956;-80
2022/10/18 09:47:59;;;;;;;56.47;33.67;;;16.00;99.90;;;;;;2613330;54;20439;-80
2022/10/18 09:50:33;;;;;;;55.13;35.87;;;16.10;99.90;;;;;;2613058;47;20485;-81
2022/10/18 09:53:10;;;;;;;61.60;34.40;;;16.00;99.90;;;;;;2612576;54;20419;-82
2022/10/18 09:56:11;;;;;;;61.60;37.20;;;16.10;99.90;;;;;;2611303;47;20529;-76
2022/10/18 09:58:46;;;;;;;56.90;35.23;;;16.20;99.90;;;;;;2610483;47;20427;-76
2022/10/18 10:01:15;;;;;;;63.23;36.83;;;16.30;99.90;;;;;;2611107;54;20446;-76
2022/10/18 10:03:41;;;;;;;51.30;35.53;;;16.30;99.90;;;;;;2612093;54;20431;-76
2022/10/18 10:06:14;;;;;;;66.63;37.67;;;16.40;99.90;;;;;;2610491;54;20446;-79
2022/10/18 10:08:42;;;;;;;52.23;34.93;;;16.60;99.90;;;;;;2612806;54;20951;-79
2022/10/18 10:11:30;;;;;;;50.40;34.83;;;16.60;99.90;;;;;;2613127;51;20442;-79
2022/10/18 10:14:07;;;;;;;60.37;36.90;;;16.70;99.90;;;;;;2613328;54;20526;-79
2022/10/18 10:16:32;;;;;;;51.60;35.00;;;16.90;99.90;;;;;;2613294;54;20403;-79
2022/10/18 10:18:58;;;;;;;46.83;33.63;;;16.90;99.90;;;;;;2612925;54;20451;-80
2022/10/18 10:21:24;;;;;;;49.80;33.30;;;17.10;99.90;;;;;;2612073;54;20171;-80
2022/10/18 10:23:54;;;;;;;51.03;33.03;;;16.80;99.90;;;;;;2609439;54;20175;-78
2022/10/18 10:26:24;;;;;;;49.33;33.60;;;17.20;99.90;;;;;;2612723;54;20147;-76
2022/10/18 10:28:50;;;;;;;46.60;32.10;;;17.00;99.90;;;;;;2612063;39;20753;-77
2022/10/18 10:31:24;;;;;;;46.37;31.87;;;17.00;99.90;;;;;;2612904;39;20812;-80
2022/10/18 10:34:02;;;;;;;41.97;30.40;;;17.10;99.90;;;;;;2613626;47;20431;-79
2022/10/18 10:36:29;;;;;;;41.67;29.60;;;17.30;99.90;;;;;;2615336;39;20822;-79
2022/10/18 10:39:06;;;;;;;38.90;26.40;;;17.30;99.90;;;;;;2613787;54;20427;-75
2022/10/18 10:41:33;;;;;;;34.80;26.63;;;17.40;99.90;;;;;;2611460;46;20431;-76
2022/10/18 10:44:03;;;;;;;35.43;25.17;;;17.50;99.90;;;;;;2614028;54;20419;-76
2022/10/18 10:46:35;;;;;;;35.03;26.40;;;17.40;99.90;;;;;;2611197;54;20447;-77
2022/10/18 10:49:02;;;;;;;38.50;27.47;;;17.40;99.90;;;;;;2613924;54;20420;-81
2022/10/18 10:51:35;;;;;;;34.33;26.53;;;17.20;99.90;;;;;;2613822;54;20419;-81
2022/10/18 10:54:10;;;;;;;41.30;29.17;;;16.90;99.90;;;;;;2615053;47;20408;-77
2022/10/18 10:56:52;;;;;;;41.93;28.50;;;17.00;99.90;;;;;;2612347;54;20457;-76
2022/10/18 10:59:21;;;;;;;46.73;30.90;;;17.00;99.90;;;;;;2612824;54;20423;-84
2022/10/18 11:01:49;;;;;;;44.50;31.70;;;17.40;99.90;;;;;;2615442;39;20784;-85
2022/10/18 11:04:32;;;;;;;46.77;31.30;;;18.60;99.90;;;;;;2614339;47;20416;-77
2022/10/18 11:07:34;;;;;;;37.80;26.60;;;19.50;99.90;;;;;;2614321;54;20399;-78
2022/10/18 11:10:00;;;;;;;29.93;23.90;;;20.20;99.90;;;;;;2611219;54;20704;-84
2022/10/18 11:12:48;;;;;;;31.20;27.80;;;20.60;99.90;;;;;;2611911;54;21073;-83
2022/10/18 11:15:47;;;;;;;28.17;25.07;;;20.70;99.90;;;;;;2611113;54;20166;-79
2022/10/18 11:18:16;;;;;;;30.40;24.00;;;19.80;99.90;;;;;;2613088;54;20420;-78
2022/10/18 11:21:15;;;;;;;35.47;28.50;;;19.70;99.90;;;;;;2612200;46;20434;-76
2022/10/18 11:23:42;;;;;;;34.40;29.00;;;19.30;99.90;;;;;;2611925;47;20439;-76
2022/10/18 11:26:11;;;;;;;40.60;27.13;;;19.30;99.90;;;;;;2613144;39;20985;-78
2022/10/18 11:28:42;;;;;;;27.90;24.80;;;18.90;99.90;;;;;;2612177;54;20424;-78
2022/10/18 11:31:13;;;;;;;26.90;20.63;;;18.70;99.90;;;;;;2612752;54;21028;-80
2022/10/18 11:34:03;;;;;;;21.77;18.87;;;19.20;99.90;;;;;;2614315;54;20435;-80
2022/10/18 11:37:00;;;;;;;18.63;15.90;;;20.60;99.90;;;;;;2614055;54;20475;-80
2022/10/18 11:39:28;;;;;;;16.83;15.13;;;21.30;99.90;;;;;;2616237;47;20478;-82
2022/10/18 11:42:16;;;;;;;17.30;15.50;;;21.40;99.90;;;;;;2614763;54;20867;-82
2022/10/18 11:45:30;;;;;;;15.53;14.10;;;21.80;99.90;;;;;;2615079;54;20423;-79
2022/10/18 11:48:33;;;;;;;17.73;14.33;;;21.80;99.90;;;;;;2611888;47;20483;-79
2022/10/18 11:51:09;;;;;;;19.90;13.00;;;20.30;99.90;;;;;;2613223;54;20423;-77
2022/10/18 11:53:57;;;;;;;14.97;13.47;;;20.00;99.90;;;;;;2612394;54;20575;-76
2022/10/18 11:56:41;;;;;;;13.27;11.87;;;20.90;99.90;;;;;;2612688;54;20412;-78
2022/10/18 11:59:31;;;;;;;15.53;12.93;;;21.00;99.90;;;;;;2612080;54;20415;-79
2022/10/18 12:02:23;;;;;;;17.40;11.50;;;20.80;99.90;;;;;;2610531;54;20435;-79
2022/10/18 12:04:54;;;;;;;18.73;12.73;;;20.50;99.90;;;;;;2612406;54;20450;-80
2022/10/18 12:07:22;;;;;;;12.13;11.00;;;20.70;99.90;;;;;;2612914;54;21164;-79
2022/10/18 12:09:52;;;;;;;17.60;12.33;;;22.10;99.90;;;;;;2611832;54;20427;-78
2022/10/18 12:12:25;;;;;;;14.10;10.60;;;22.20;99.90;;;;;;2612482;39;20860;-79
2022/10/18 12:14:58;;;;;;;13.40;12.17;;;22.70;93.50;;;;;;2610153;47;20428;-78
2022/10/18 12:17:29;;;;;;;13.87;12.37;;;22.70;88.70;;;;;;2610564;54;20507;-76
2022/10/18 12:19:58;;;;;;;13.60;12.23;;;21.80;86.70;;;;;;2612031;47;20431;-78
2022/10/18 12:22:44;;;;;;;14.23;12.80;;;22.50;90.10;;;;;;2611150;54;20415;-78
2022/10/18 12:25:15;;;;;;;11.00;9.90;;;22.70;83.00;;;;;;2613888;54;20427;-78
2022/10/18 12:27:47;;;;;;;12.47;11.27;;;22.70;86.60;;;;;;2613129;47;20423;-80
2022/10/18 12:30:37;;;;;;;9.83;8.53;;;22.50;74.60;;;;;;2613202;39;20832;-77
2022/10/18 12:33:10;;;;;;;13.00;9.70;;;21.70;90.30;;;;;;2612526;54;20459;-78
2022/10/18 12:36:02;;;;;;;15.07;10.90;;;20.20;99.90;;;;;;2612314;54;20404;-81
2022/10/18 12:38:37;;;;;;;12.50;7.90;;;20.30;99.90;;;;;;2613277;54;20422;-80
2022/10/18 12:41:04;;;;;;;9.67;8.50;;;21.40;96.70;;;;;;2613525;54;20458;-80
2022/10/18 12:43:35;;;;;;;11.57;8.70;;;21.70;93.40;;;;;;2612573;47;20538;-81
2022/10/18 12:46:04;;;;;;;12.03;8.80;;;20.50;95.90;;;;;;2614482;54;20520;-77
2022/10/18 12:48:41;;;;;;;10.57;8.50;;;20.00;98.60;;;;;;2613973;54;20431;-77
2022/10/18 12:51:21;;;;;;;11.60;8.20;;;21.10;85.20;;;;;;2614102;54;20407;-81
2022/10/18 12:54:06;;;;;;;9.47;8.60;;;21.80;74.80;;;;;;2612890;54;20431;-80